Time;durP1;ratioP1;P1;durP2;ratioP2;P2;SDS_P1;SDS_P2;PMS_P1;PMS_P2;Temp;Humidity;BMP_temperature;BMP_pressure;BME280_temperature;BME280_humidity;BME280_pressure;Samples;Min_cycle;Max_cycle;Signal;HPM_P1;HPM_P2
2021/11/05 00:02:13;;;;;;;17.08;8.25;;;;;;;8.56;100.00;98579.44;5126163;28;20457;-96
2021/11/05 00:04:39;;;;;;;17.40;8.38;;;;;;;8.68;100.00;98583.59;5124059;28;20079;-94
2021/11/05 00:07:05;;;;;;;20.17;9.32;;;;;;;8.58;100.00;98572.31;5125431;28;20043;-96
2021/11/05 00:09:32;;;;;;;18.05;8.38;;;;;;;8.61;100.00;98585.53;5126255;28;20043;-94
2021/11/05 00:11:58;;;;;;;15.07;7.95;;;;;;;8.44;100.00;98572.63;5125388;28;20048;-95
2021/11/05 00:14:25;;;;;;;17.67;9.55;;;;;;;8.40;100.00;98577.13;5124876;28;20509;-95
2021/11/05 00:16:51;;;;;;;18.48;9.90;;;;;;;8.44;100.00;98601.78;5125509;28;20496;-95
2021/11/05 00:19:18;;;;;;;19.13;8.27;;;;;;;8.35;100.00;98597.50;5124292;27;20046;-95
2021/11/05 00:21:45;;;;;;;16.98;8.15;;;;;;;8.17;100.00;98566.09;5124004;28;20040;-95
2021/11/05 00:24:11;;;;;;;12.90;7.72;;;;;;;8.15;100.00;98575.84;5123981;28;20040;-96
2021/11/05 00:26:38;;;;;;;19.23;8.32;;;;;;;8.07;100.00;98573.38;5124335;28;20035;-95
2021/11/05 00:29:04;;;;;;;10.75;7.40;;;;;;;8.10;100.00;98575.94;5124958;28;20117;-95
2021/11/05 00:31:32;;;;;;;14.93;7.45;;;;;;;8.05;100.00;98575.19;5124648;28;20040;-95
2021/11/05 00:33:58;;;;;;;15.80;7.88;;;;;;;8.06;100.00;98565.44;5124873;28;20034;-95
2021/11/05 00:36:25;;;;;;;14.57;8.10;;;;;;;8.00;100.00;98561.13;5123948;28;20061;-95
2021/11/05 00:38:52;;;;;;;12.65;8.52;;;;;;;8.11;100.00;98572.41;5123857;28;20078;-96
2021/11/05 00:41:18;;;;;;;12.27;7.90;;;;;;;8.02;100.00;98560.22;5122918;28;20060;-95
2021/11/05 00:43:44;;;;;;;16.95;8.70;;;;;;;8.23;100.00;98565.97;5123876;28;20043;-95
2021/11/05 00:46:11;;;;;;;17.17;8.25;;;;;;;8.18;100.00;98555.47;5122744;28;20074;-95
2021/11/05 00:48:38;;;;;;;18.02;8.00;;;;;;;8.13;100.00;98548.53;5124420;28;20043;-95
2021/11/05 00:51:04;;;;;;;16.25;7.90;;;;;;;8.11;100.00;98550.31;5123245;28;20044;-95
2021/11/05 00:53:33;;;;;;;17.98;7.40;;;;;;;8.05;100.00;98542.53;5124326;28;20070;-95
2021/11/05 00:55:59;;;;;;;15.57;7.70;;;;;;;8.03;100.00;98546.06;5123493;28;20060;-96
2021/11/05 00:58:25;;;;;;;12.57;7.55;;;;;;;7.99;100.00;98549.69;5123272;28;20116;-95
2021/11/05 01:00:51;;;;;;;17.30;7.35;;;;;;;7.90;100.00;98549.88;5123566;28;20047;-95
2021/11/05 01:03:17;;;;;;;13.57;7.50;;;;;;;7.85;100.00;98549.09;5123170;28;20047;-96
2021/11/05 01:05:43;;;;;;;21.90;10.05;;;;;;;7.95;100.00;98577.13;5122940;28;20047;-95
2021/11/05 01:08:10;;;;;;;16.95;9.38;;;;;;;7.69;100.00;98555.56;5123599;28;20036;-94
2021/11/05 01:10:37;;;;;;;23.75;11.10;;;;;;;7.67;100.00;98571.47;5122646;28;20063;-95
2021/11/05 01:13:08;;;;;;;27.50;11.98;;;;;;;7.66;100.00;98577.69;5122412;28;20403;-96
2021/11/05 01:15:35;;;;;;;24.63;11.73;;;;;;;7.49;100.00;98556.81;5122786;28;20401;-95
2021/11/05 01:18:02;;;;;;;24.15;11.63;;;;;;;7.39;100.00;98552.59;5123524;28;20075;-96
2021/11/05 01:20:29;;;;;;;18.33;9.93;;;;;;;7.36;100.00;98560.59;5123752;28;20044;-95
2021/11/05 01:22:56;;;;;;;16.20;8.10;;;;;;;7.43;100.00;98570.16;5123774;28;20420;-95
2021/11/05 01:25:22;;;;;;;16.48;8.18;;;;;;;7.35;100.00;98561.47;5124381;28;20052;-96
2021/11/05 01:27:50;;;;;;;15.10;6.75;;;;;;;7.43;100.00;98591.31;5123496;28;20104;-96
2021/11/05 01:30:17;;;;;;;12.38;6.85;;;;;;;7.33;100.00;98577.38;5123542;28;20055;-95
2021/11/05 01:32:46;;;;;;;16.92;6.63;;;;;;;7.31;100.00;98579.19;5123098;28;20071;-96
2021/11/05 01:35:14;;;;;;;12.50;6.70;;;;;;;7.33;100.00;98595.91;5122892;28;20039;-96
2021/11/05 01:37:41;;;;;;;14.20;6.97;;;;;;;7.17;100.00;98568.81;5244004;22;20044;-95
2021/11/05 01:40:08;;;;;;;18.55;7.13;;;;;;;7.16;100.00;98569.72;5082027;28;20040;-95
2021/11/05 01:42:34;;;;;;;14.13;6.65;;;;;;;7.14;100.00;98568.88;5082409;28;20133;-95
2021/11/05 01:45:05;;;;;;;12.05;6.35;;;;;;;7.15;100.00;98569.75;5083015;28;20498;-95
2021/11/05 01:47:31;;;;;;;12.90;6.72;;;;;;;7.10;100.00;98561.91;5081966;28;20433;-94
2021/11/05 01:49:57;;;;;;;20.55;7.22;;;;;;;7.12;100.00;98564.53;5081587;28;20120;-95
2021/11/05 01:52:23;;;;;;;15.70;6.40;;;;;;;7.26;100.00;98590.72;5084118;28;20502;-94
2021/11/05 01:54:50;;;;;;;11.18;6.25;;;;;;;7.27;100.00;98598.66;5086528;28;20083;-96
2021/11/05 01:57:16;;;;;;;11.45;6.82;;;;;;;7.19;100.00;98585.53;5087224;28;20060;-95
2021/11/05 01:59:48;;;;;;;14.07;6.72;;;;;;;7.07;100.00;98569.88;5086868;28;20200;-96
2021/11/05 02:02:15;;;;;;;14.90;7.18;;;;;;;7.17;100.00;98595.25;5086414;28;20405;-96
2021/11/05 02:04:43;;;;;;;10.60;6.82;;;;;;;6.94;100.00;98566.56;5086404;28;20041;-95
2021/11/05 02:07:11;;;;;;;18.35;7.53;;;;;;;6.94;100.00;98565.66;5086511;28;20130;-95
2021/11/05 02:12:39;;;;;;;17.00;7.90;;;;;;;7.08;100.00;98583.97;5120856;27;20404;-95
2021/11/05 02:15:07;;;;;;;15.40;7.57;;;;;;;7.08;100.00;98579.56;5120514;28;20476;-95
2021/11/05 02:17:36;;;;;;;11.00;6.63;;;;;;;7.04;100.00;98566.41;5120984;28;20405;-95
2021/11/05 02:20:04;;;;;;;;;;;;;;;7.24;100.00;98609.25;5121380;28;20047;-95
2021/11/05 02:22:32;;;;;;;14.20;6.72;;;;;;;7.08;100.00;98578.69;5120430;28;20388;-94
2021/11/05 02:24:57;;;;;;;10.77;7.28;;;;;;;7.13;100.00;98595.34;5120369;28;20127;-95
2021/11/05 02:27:24;;;;;;;12.02;7.28;;;;;;;7.16;100.00;98611.19;5120237;28;20079;-94
2021/11/05 02:29:50;;;;;;;17.05;7.82;;;;;;;6.93;100.00;98563.94;5120170;28;20050;-96
2021/11/05 02:32:17;;;;;;;13.70;7.38;;;;;;;6.97;100.00;98587.66;5118823;28;20050;-95
2021/11/05 02:34:43;;;;;;;15.02;6.90;;;;;;;7.01;100.00;98599.06;5120431;28;20047;-95
2021/11/05 02:37:10;;;;;;;14.20;7.13;;;;;;;7.02;100.00;98599.94;5120468;28;20051;-95
2021/11/05 02:39:38;;;;;;;12.02;7.25;;;;;;;7.05;100.00;98579.63;5120447;28;20044;-95
2021/11/05 02:42:05;;;;;;;15.88;8.38;;;;;;;7.04;100.00;98566.41;5119719;28;20122;-95
2021/11/05 02:44:31;;;;;;;15.90;7.80;;;;;;;7.07;100.00;98576.94;5119819;28;20040;-94
2021/11/05 02:46:57;;;;;;;13.45;7.65;;;;;;;7.15;100.00;98609.41;5119959;28;20101;-94
2021/11/05 02:49:23;;;;;;;16.67;7.88;;;;;;;7.03;100.00;98606.97;5120191;28;20047;-94
2021/11/05 02:51:51;;;;;;;15.20;8.32;;;;;;;6.95;100.00;98593.88;5120523;28;20054;-94
2021/11/05 02:54:17;;;;;;;13.02;8.13;;;;;;;6.85;100.00;98582.53;5119736;28;20039;-95
2021/11/05 02:56:45;;;;;;;16.92;8.32;;;;;;;6.90;100.00;98611.56;5120250;28;20046;-95
2021/11/05 02:59:12;;;;;;;16.90;8.35;;;;;;;6.82;100.00;98603.75;5119632;28;20071;-95
2021/11/05 03:01:39;;;;;;;14.68;9.05;;;;;;;6.90;100.00;98623.03;5119830;28;20032;-95
2021/11/05 03:04:08;;;;;;;15.70;8.77;;;;;;;6.71;100.00;98598.63;5119924;28;20070;-95
2021/11/05 03:06:35;;;;;;;;;;;;;;;6.89;100.00;98631.81;5119224;28;20048;-95
2021/11/05 03:09:09;;;;;;;14.32;8.93;;;;;;;6.62;100.00;98582.91;5118952;28;19916;-94
2021/11/05 03:11:36;;;;;;;17.85;9.35;;;;;;;6.60;100.00;98591.75;5119120;28;20056;-96
2021/11/05 03:14:04;;;;;;;13.35;8.45;;;;;;;6.74;100.00;98625.03;5119757;28;20039;-94
2021/11/05 03:16:30;;;;;;;18.42;8.73;;;;;;;6.64;100.00;98619.88;5119205;28;20040;-94
2021/11/05 03:18:56;;;;;;;12.65;8.50;;;;;;;6.52;100.00;98612.97;5118802;28;20040;-95
2021/11/05 03:21:22;;;;;;;18.75;8.65;;;;;;;6.53;100.00;98612.97;5119547;28;20047;-95
2021/11/05 03:23:48;;;;;;;15.65;9.02;;;;;;;6.51;100.00;98600.69;5106181;28;20032;-95
2021/11/05 03:26:14;;;;;;;13.13;9.30;;;;;;;6.69;100.00;98629.47;5105206;28;20077;-95
2021/11/05 03:28:40;;;;;;;16.88;8.35;;;;;;;6.65;100.00;98625.13;5105021;28;20079;-94
2021/11/05 03:31:08;;;;;;;18.95;8.55;;;;;;;6.62;100.00;98619.88;5105384;28;20125;-94
2021/11/05 03:33:34;;;;;;;18.17;9.55;;;;;;;6.66;100.00;98613.69;5104990;28;20048;-94
2021/11/05 03:36:00;;;;;;;17.05;9.40;;;;;;;6.81;100.00;98639.00;5105188;28;20048;-93
2021/11/05 03:38:26;;;;;;;18.77;9.15;;;;;;;6.71;100.00;98614.47;5104915;28;20040;-95
2021/11/05 03:40:52;;;;;;;17.98;8.95;;;;;;;6.99;100.00;98664.31;5104712;28;20153;-95
2021/11/05 03:43:18;;;;;;;18.52;9.00;;;;;;;6.80;100.00;98631.97;5104695;28;20573;-95
2021/11/05 03:45:45;;;;;;;19.27;9.55;;;;;;;6.78;100.00;98624.06;5105694;28;20054;-94
2021/11/05 03:48:12;;;;;;;17.63;9.20;;;;;;;6.78;100.00;98628.47;5105267;28;20544;-94
2021/11/05 03:50:39;;;;;;;28.83;10.27;;;;;;;6.79;100.00;98628.47;5105203;28;20409;-94
2021/11/05 03:53:05;;;;;;;14.13;9.00;;;;;;;6.81;100.00;98630.19;5105707;28;20123;-93
2021/11/05 03:55:31;;;;;;;17.40;9.32;;;;;;;6.84;100.00;98627.53;5105788;28;20465;-96
2021/11/05 03:57:57;;;;;;;12.23;7.82;;;;;;;7.03;100.00;98666.00;5122322;28;20035;-94
2021/11/05 04:00:23;;;;;;;15.98;9.13;;;;;;;6.92;100.00;98641.50;5125718;28;20055;-96
2021/11/05 04:02:50;;;;;;;16.98;9.32;;;;;;;6.99;100.00;98653.72;5124503;28;20036;-94
2021/11/05 04:05:17;;;;;;;18.80;9.32;;;;;;;6.99;100.00;98638.72;5105367;28;20202;-94
2021/11/05 04:07:43;;;;;;;14.48;8.50;;;;;;;7.02;100.00;98642.22;5104808;28;20044;-94
2021/11/05 04:10:10;;;;;;;15.77;8.52;;;;;;;7.16;100.00;98674.66;5105169;28;20035;-95
2021/11/05 04:12:36;;;;;;;20.42;9.85;;;;;;;6.99;100.00;98651.09;5064280;28;20041;-96
2021/11/05 04:15:04;;;;;;;18.58;8.70;;;;;;;7.02;100.00;98650.16;5063632;28;20128;-94
2021/11/05 04:17:30;;;;;;;15.32;8.88;;;;;;;7.09;100.00;98647.41;5064313;28;20045;-95
2021/11/05 04:19:56;;;;;;;21.13;9.10;;;;;;;7.15;100.00;98639.38;5064367;28;20037;-94
2021/11/05 04:22:23;;;;;;;19.75;10.27;;;;;;;7.22;100.00;98650.72;5066930;28;20051;-94
2021/11/05 04:24:49;;;;;;;18.35;9.60;;;;;;;7.38;100.00;98672.53;5076345;28;20068;-94
2021/11/05 04:27:15;;;;;;;18.50;9.77;;;;;;;7.17;100.00;98627.00;5072443;28;20064;-95
2021/11/05 04:29:42;;;;;;;14.10;9.18;;;;;;;7.38;100.00;98640.78;5084239;28;20440;-94
2021/11/05 04:32:08;;;;;;;16.40;9.82;;;;;;;7.52;100.00;98662.59;5083806;28;20040;-95
2021/11/05 04:34:34;;;;;;;16.67;9.02;;;;;;;7.32;100.00;98633.81;5083202;28;20044;-94
2021/11/05 04:37:01;;;;;;;20.15;9.93;;;;;;;7.29;100.00;98641.81;5083603;28;20100;-95
2021/11/05 04:39:29;;;;;;;19.88;9.88;;;;;;;7.22;100.00;98640.13;5083868;28;20076;-94
2021/11/05 04:41:55;;;;;;;17.35;9.63;;;;;;;7.30;100.00;98658.56;5084065;28;20044;-95
2021/11/05 04:44:21;;;;;;;19.70;9.85;;;;;;;7.19;100.00;98643.72;5084256;28;20051;-95
2021/11/05 04:46:47;;;;;;;19.92;10.18;;;;;;;7.25;100.00;98640.13;5082598;28;20073;-95
2021/11/05 04:49:13;;;;;;;20.40;9.52;;;;;;;7.26;100.00;98627.75;5082496;28;20379;-95
2021/11/05 04:51:40;;;;;;;21.55;9.98;;;;;;;7.28;100.00;98639.19;5066821;28;20544;-95
2021/11/05 04:54:06;;;;;;;18.33;9.70;;;;;;;7.44;100.00;98648.63;5063454;28;20075;-94
2021/11/05 04:56:34;;;;;;;18.25;10.10;;;;;;;7.37;100.00;98628.44;5063648;28;20108;-93
2021/11/05 04:59:00;;;;;;;18.13;10.10;;;;;;;7.32;100.00;98625.03;5062715;28;20048;-95
2021/11/05 05:01:26;;;;;;;21.00;9.73;;;;;;;7.30;100.00;98624.16;5062996;28;20045;-95
2021/11/05 05:03:52;;;;;;;17.77;9.70;;;;;;;7.21;100.00;98611.97;5064142;28;20047;-96
2021/11/05 05:06:18;;;;;;;16.00;9.23;;;;;;;7.23;100.00;98609.31;5063479;28;20045;-96
2021/11/05 05:08:45;;;;;;;20.30;10.55;;;;;;;7.38;100.00;98609.06;5063001;28;20533;-95
2021/11/05 05:11:13;;;;;;;16.70;8.82;;;;;;;7.30;100.00;98601.22;5080193;28;20502;-96
2021/11/05 05:13:41;;;;;;;20.05;8.90;;;;;;;7.28;100.00;98616.25;5104384;28;20036;-95
2021/11/05 05:16:07;;;;;;;16.65;9.25;;;;;;;7.46;100.00;98660.06;5102670;28;20039;-95
2021/11/05 05:18:33;;;;;;;24.92;10.95;;;;;;;7.22;100.00;98634.84;5103852;28;20052;-95
2021/11/05 05:20:59;;;;;;;20.08;10.52;;;;;;;7.15;100.00;98633.22;5103375;28;20210;-95
2021/11/05 05:23:25;;;;;;;16.67;10.48;;;;;;;7.07;100.00;98629.81;5102245;28;20106;-95
2021/11/05 05:25:51;;;;;;;26.58;10.57;;;;;;;7.25;100.00;98676.28;5103861;28;20051;-95
2021/11/05 05:28:18;;;;;;;17.98;9.80;;;;;;;7.04;100.00;98640.44;5103726;28;20056;-95
2021/11/05 05:30:45;;;;;;;17.73;10.38;;;;;;;7.19;100.00;98661.34;5103650;28;20040;-96
2021/11/05 05:33:11;;;;;;;21.50;9.65;;;;;;;7.04;100.00;98653.66;5103092;28;20040;-96
2021/11/05 05:35:37;;;;;;;16.33;9.75;;;;;;;7.10;100.00;98656.22;5103422;28;20047;-95
2021/11/05 05:38:03;;;;;;;18.55;10.68;;;;;;;6.90;100.00;98640.66;5103698;28;20048;-95
2021/11/05 05:40:29;;;;;;;16.52;9.18;;;;;;;6.91;100.00;98655.59;5102940;28;20046;-96
2021/11/05 05:42:55;;;;;;;19.98;10.50;;;;;;;6.72;100.00;98639.13;5103840;28;20075;-96
2021/11/05 05:45:22;;;;;;;20.73;10.70;;;;;;;6.77;100.00;98659.31;5103994;28;20044;-96
2021/11/05 05:47:49;;;;;;;19.92;9.88;;;;;;;6.93;100.00;98677.59;5103536;28;20040;-95
2021/11/05 05:50:17;;;;;;;16.58;9.43;;;;;;;6.66;100.00;98649.78;5103337;28;20054;-96
2021/11/05 05:52:43;;;;;;;21.73;9.88;;;;;;;6.75;100.00;98684.88;5103184;28;20040;-95
2021/11/05 05:55:12;;;;;;;18.23;10.05;;;;;;;6.55;100.00;98648.16;5103183;28;20405;-96
2021/11/05 05:57:38;;;;;;;17.15;9.48;;;;;;;6.46;100.00;98652.66;5102912;28;20048;-94
2021/11/05 06:00:05;;;;;;;19.67;9.27;;;;;;;6.56;100.00;98676.31;5104501;28;20123;-94
2021/11/05 06:02:31;;;;;;;17.58;9.07;;;;;;;6.49;100.00;98671.16;5113333;28;20046;-94
2021/11/05 06:04:59;;;;;;;15.55;9.50;;;;;;;6.45;100.00;98645.66;5104128;28;20036;-94
2021/11/05 06:07:25;;;;;;;18.92;9.35;;;;;;;6.45;100.00;98657.09;5102786;28;20046;-94
2021/11/05 06:09:51;;;;;;;17.40;9.40;;;;;;;6.48;100.00;98661.44;5100318;28;20036;-95
2021/11/05 06:12:17;;;;;;;14.23;8.75;;;;;;;6.43;100.00;98668.56;5113963;28;20044;-94
2021/11/05 06:14:43;;;;;;;14.63;8.10;;;;;;;6.54;100.00;98693.09;5104787;28;20067;-94
2021/11/05 06:17:08;;;;;;;17.02;9.25;;;;;;;6.57;100.00;98706.25;5114398;28;20036;-94
2021/11/05 06:19:34;;;;;;;20.85;11.18;;;;;;;6.57;100.00;98693.03;5104676;28;20040;-93
2021/11/05 06:22:04;;;;;;;17.60;9.32;;;;;;;6.59;100.00;98693.88;5119894;28;20040;-93
2021/11/05 06:24:30;;;;;;;17.55;9.82;;;;;;;6.46;100.00;98681.72;5102673;28;20024;-95
2021/11/05 06:26:56;;;;;;;22.23;10.15;;;;;;;6.47;100.00;98684.34;5102742;28;20046;-94
2021/11/05 06:29:22;;;;;;;19.33;10.05;;;;;;;6.52;100.00;98698.38;5102086;28;20071;-94
2021/11/05 06:31:48;;;;;;;18.02;9.05;;;;;;;6.34;100.00;98683.63;5102674;28;20059;-95
2021/11/05 06:34:14;;;;;;;18.17;9.88;;;;;;;6.34;100.00;98680.13;5117923;28;20044;-94
2021/11/05 06:36:43;;;;;;;18.25;10.23;;;;;;;6.36;100.00;98697.69;5120735;28;20046;-94
2021/11/05 06:39:10;;;;;;;19.90;9.90;;;;;;;6.58;100.00;98737.06;5118482;28;20047;-94
2021/11/05 06:41:36;;;;;;;20.33;8.88;;;;;;;6.34;100.00;98696.84;5102008;28;20520;-93
2021/11/05 06:44:02;;;;;;;16.77;9.48;;;;;;;6.42;100.00;98709.97;5106055;28;20131;-94
2021/11/05 06:46:29;;;;;;;20.48;10.10;;;;;;;6.38;100.00;98698.56;5106928;28;20044;-93
2021/11/05 06:48:55;;;;;;;18.88;10.60;;;;;;;6.61;100.00;98737.03;5102197;28;20052;-94
2021/11/05 06:51:21;;;;;;;18.08;9.85;;;;;;;6.69;100.00;98753.66;5106094;28;20174;-94
2021/11/05 06:53:47;;;;;;;21.15;10.20;;;;;;;6.60;100.00;98740.56;5105702;28;20111;-94
2021/11/05 06:56:17;;;;;;;19.58;10.65;;;;;;;6.63;100.00;98729.94;5104752;28;20422;-94
2021/11/05 06:58:45;;;;;;;23.33;10.48;;;;;;;6.71;100.00;98741.31;5104567;28;20051;-94
2021/11/05 07:01:12;;;;;;;18.27;9.77;;;;;;;6.62;100.00;98728.22;5107870;28;20043;-92
2021/11/05 07:03:38;;;;;;;18.15;10.50;;;;;;;6.82;100.00;98751.75;5110059;28;20497;-92
2021/11/05 07:06:04;;;;;;;25.20;10.73;;;;;;;6.87;100.00;98773.72;5126376;28;20035;-94
2021/11/05 07:08:31;;;;;;;23.30;12.52;;;;;;;6.75;100.00;98755.38;5111619;28;20040;-93
2021/11/05 07:10:57;;;;;;;24.10;13.15;;;;;;;6.93;100.00;98772.78;5108072;28;20052;-93
2021/11/05 07:13:25;;;;;;;26.67;13.55;;;;;;;6.79;100.00;98746.53;5107699;28;20178;-94
2021/11/05 07:15:52;;;;;;;23.40;13.70;;;;;;;6.92;100.00;98768.41;5105745;28;20174;-92
2021/11/05 07:18:19;;;;;;;26.38;13.85;;;;;;;6.94;100.00;98774.50;5105292;28;20111;-93
2021/11/05 07:20:45;;;;;;;32.63;16.58;;;;;;;6.92;100.00;98778.97;5104421;28;20043;-95
2021/11/05 07:23:12;;;;;;;31.52;15.55;;;;;;;7.14;100.00;98796.31;5107378;28;20035;-93
2021/11/05 07:25:39;;;;;;;26.65;16.05;;;;;;;7.13;100.00;98781.31;5107018;28;20517;-93
2021/11/05 07:28:05;;;;;;;31.20;16.50;;;;;;;7.31;100.00;98782.00;5109767;28;20047;-94
2021/11/05 07:30:32;;;;;;;24.17;15.60;;;;;;;7.25;100.00;98759.13;5114561;28;20044;-93
2021/11/05 07:32:58;;;;;;;29.25;15.85;;;;;;;7.32;100.00;98752.84;5106442;28;20050;-93
2021/11/05 07:35:24;;;;;;;39.67;16.20;;;;;;;7.52;100.00;98779.00;5114341;28;20073;-94
2021/11/05 07:37:51;;;;;;;26.83;16.38;;;;;;;7.66;100.00;98751.50;5108312;28;20039;-93
2021/11/05 07:40:18;;;;;;;28.80;13.30;;;;;;;7.95;100.00;98772.19;5117123;28;20047;-94
2021/11/05 07:42:46;;;;;;;26.27;15.07;;;;;;;8.05;100.00;98754.38;5108989;28;20100;-94
2021/11/05 07:45:14;;;;;;;28.85;15.30;;;;;;;8.09;100.00;98783.44;5115701;28;20040;-93
2021/11/05 07:47:45;;;;;;;25.00;13.93;;;;;;;8.21;100.00;98785.84;5114365;28;20112;-94
2021/11/05 07:50:13;;;;;;;24.50;14.27;;;;;;;8.59;100.00;98809.97;5118806;28;20097;-95
2021/11/05 07:52:39;;;;;;;24.67;13.87;;;;;;;8.63;99.20;98775.44;5100432;28;20130;-94
2021/11/05 07:55:07;;;;;;;27.85;14.27;;;;;;;8.86;97.57;98781.19;5100817;28;20335;-94
2021/11/05 07:57:33;;;;;;;24.25;12.82;;;;;;;9.05;97.34;98780.78;5112123;28;20048;-94
2021/11/05 07:59:59;;;;;;;28.77;14.15;;;;;;;9.29;96.18;98794.44;5121939;28;20044;-94
2021/11/05 08:02:25;;;;;;;25.10;14.43;;;;;;;9.34;94.55;98779.25;5106472;28;20109;-95
2021/11/05 08:04:53;;;;;;;21.83;13.10;;;;;;;9.61;93.67;98803.47;5102857;28;20073;-95
2021/11/05 08:07:21;;;;;;;24.90;13.55;;;;;;;9.73;91.07;98811.13;5102585;28;20040;-94
2021/11/05 08:09:48;;;;;;;21.75;12.52;;;;;;;9.63;91.60;98786.59;5111648;28;20111;-95
2021/11/05 08:12:14;;;;;;;25.02;13.00;;;;;;;9.60;91.75;98784.00;5123874;28;20058;-95
2021/11/05 08:14:40;;;;;;;22.58;12.30;;;;;;;9.70;91.74;98776.69;5121822;28;20078;-95
2021/11/05 08:17:07;;;;;;;24.40;13.18;;;;;;;9.96;91.19;98789.34;5120698;28;20454;-94
2021/11/05 08:19:33;;;;;;;22.73;12.88;;;;;;;10.05;89.79;98781.16;5122120;28;20115;-94
2021/11/05 08:22:00;;;;;;;20.75;12.18;;;;;;;10.18;89.52;98775.53;5121185;28;20074;-94
2021/11/05 08:24:27;;;;;;;26.45;13.80;;;;;;;10.24;89.77;98788.69;5107194;28;20040;-96
2021/11/05 08:26:53;;;;;;;27.98;14.18;;;;;;;10.38;88.77;98785.69;5104124;28;20074;-95
2021/11/05 08:29:19;;;;;;;26.05;14.35;;;;;;;10.53;88.27;98782.63;5103617;28;20081;-95
2021/11/05 08:31:45;;;;;;;25.13;14.68;;;;;;;10.65;85.83;98792.06;5104065;28;20070;-95
2021/11/05 08:34:12;;;;;;;27.90;14.35;;;;;;;10.73;85.86;98798.03;5104081;28;20073;-96
2021/11/05 08:36:39;;;;;;;30.58;16.02;;;;;;;10.71;84.92;98783.91;5104092;28;20401;-94
2021/11/05 08:39:08;;;;;;;24.52;14.98;;;;;;;10.44;85.74;98791.72;5104547;28;20036;-95
2021/11/05 08:41:34;;;;;;;30.90;15.48;;;;;;;10.52;85.88;98794.19;5110843;28;20067;-95
2021/11/05 08:44:00;;;;;;;29.90;14.43;;;;;;;10.50;87.78;98795.16;5125588;28;20059;-95
2021/11/05 08:46:29;;;;;;;29.10;14.50;;;;;;;10.65;87.45;98762.81;5119671;28;20060;-94
2021/11/05 08:48:58;;;;;;;28.75;14.48;;;;;;;10.94;87.16;98772.63;5101534;28;20071;-95
2021/11/05 08:51:25;;;;;;;;;;;;;;;11.21;86.70;98794.94;5103814;28;20047;-94
2021/11/05 08:53:52;;;;;;;25.35;13.50;;;;;;;11.22;85.96;98755.88;5102481;28;20311;-96
2021/11/05 08:56:19;;;;;;;23.63;12.55;;;;;;;11.56;84.49;98779.69;5102420;28;20069;-94
2021/11/05 08:58:47;;;;;;;22.05;11.88;;;;;;;11.67;83.77;98761.56;5102352;28;20044;-95
2021/11/05 09:01:14;;;;;;;20.40;12.65;;;;;;;11.91;83.06;98767.94;5103473;28;20498;-95
2021/11/05 09:03:40;;;;;;;20.58;11.43;;;;;;;11.99;82.20;98754.38;5104174;28;20048;-95
2021/11/05 09:06:06;;;;;;;28.77;12.00;;;;;;;12.26;82.26;98778.34;5104405;28;20157;-94
2021/11/05 09:08:33;;;;;;;25.02;10.60;;;;;;;12.27;80.29;98756.09;5104145;28;20048;-95
2021/11/05 09:11:00;;;;;;;17.13;6.93;;;;;;;12.45;77.68;98751.94;5096218;28;20044;-96
2021/11/05 09:13:28;;;;;;;11.23;4.03;;;;;;;12.67;75.75;98738.69;5082576;28;20051;-94
2021/11/05 09:15:54;;;;;;;9.60;4.10;;;;;;;12.99;75.09;98774.00;5115541;28;20060;-96
2021/11/05 09:18:21;;;;;;;8.00;3.78;;;;;;;13.18;73.58;98772.38;5115554;28;20032;-95
2021/11/05 09:20:47;;;;;;;10.93;3.80;;;;;;;13.42;73.80;98775.09;5121913;28;20040;-94
2021/11/05 09:23:13;;;;;;;8.75;3.65;;;;;;;13.54;70.99;98764.78;5102859;28;20048;-95
2021/11/05 09:25:39;;;;;;;9.13;3.58;;;;;;;13.75;71.59;98796.97;5110341;28;20082;-94
2021/11/05 09:28:05;;;;;;;12.75;3.78;;;;;;;13.59;68.73;98771.78;5104426;28;20036;-94
2021/11/05 09:30:32;;;;;;;7.15;3.17;;;;;;;13.51;67.03;98766.72;5102124;28;20044;-95
2021/11/05 09:32:58;;;;;;;8.10;3.63;;;;;;;13.74;67.79;98790.72;5101889;28;20493;-95
2021/11/05 09:35:26;;;;;;;7.50;3.88;;;;;;;13.83;67.41;98780.59;5104096;28;20050;-95
2021/11/05 09:37:52;;;;;;;8.07;3.80;;;;;;;13.80;66.38;98767.38;5104035;28;20040;-95
2021/11/05 09:40:23;;;;;;;8.82;3.58;;;;;;;13.69;66.28;98774.03;5122147;28;20130;-95
2021/11/05 09:42:51;;;;;;;9.95;3.10;;;;;;;13.89;67.92;98788.38;5084309;28;20513;-94
2021/11/05 09:45:18;;;;;;;10.80;3.28;;;;;;;14.05;68.07;98797.53;5084265;28;20052;-95
2021/11/05 09:47:46;;;;;;;20.75;9.07;;;;;;;14.06;70.50;98798.41;5111317;28;20050;-95
2021/11/05 09:50:15;;;;;;;19.70;11.40;;;;;;;14.15;71.06;98809.59;5120553;28;20067;-95
2021/11/05 09:52:41;;;;;;;21.08;11.27;;;;;;;14.32;72.82;98805.34;5116516;28;20051;-95
2021/11/05 09:55:08;;;;;;;25.75;12.98;;;;;;;14.26;72.80;98789.56;5109319;28;20032;-95
2021/11/05 09:57:34;;;;;;;21.00;12.25;;;;;;;14.24;72.21;98796.78;5103692;28;20100;-96
2021/11/05 10:00:00;;;;;;;22.52;11.85;;;;;;;14.25;72.31;98795.81;5102616;28;20044;-95
2021/11/05 10:02:27;;;;;;;22.63;12.45;;;;;;;14.41;72.54;98820.16;5101617;28;20542;-95
2021/11/05 10:04:57;;;;;;;25.42;12.32;;;;;;;14.21;72.86;98796.91;5110064;28;20031;-96
2021/11/05 10:07:23;;;;;;;23.52;12.63;;;;;;;14.36;73.12;98815.00;5109721;28;20378;-96
2021/11/05 10:09:52;;;;;;;24.95;11.38;;;;;;;14.37;72.51;98795.31;5120491;28;20092;-94
2021/11/05 10:12:20;;;;;;;20.33;10.15;;;;;;;14.42;71.85;98796.00;5107214;28;20072;-94
2021/11/05 10:14:53;;;;;;;18.67;10.40;;;;;;;14.45;72.25;98779.81;5102692;28;20047;-96
2021/11/05 10:17:21;;;;;;;17.45;10.77;;;;;;;14.67;71.61;98784.28;5102248;28;20047;-95
2021/11/05 10:19:55;;;;;;;21.58;11.27;;;;;;;14.76;71.43;98775.84;5102003;28;20039;-96
2021/11/05 10:25:47;;;;;;;18.10;9.55;;;;;;;14.60;68.95;98782.81;5115662;27;20389;-95
2021/11/05 10:28:17;;;;;;;18.48;10.68;;;;;;;14.11;71.20;98775.88;5115458;28;20206;-93
2021/11/05 10:30:52;;;;;;;16.67;9.80;;;;;;;14.01;73.78;98781.66;5114259;28;20051;-94
2021/11/05 10:33:20;;;;;;;22.90;9.73;;;;;;;13.95;73.21;98774.78;5114293;28;20036;-92
2021/11/05 10:35:48;;;;;;;16.70;8.88;;;;;;;14.09;71.58;98777.72;5114411;28;20044;-94
2021/11/05 10:38:14;;;;;;;17.23;9.27;;;;;;;14.36;70.17;98783.75;5114620;28;20044;-95
2021/11/05 10:40:45;;;;;;;18.83;9.00;;;;;;;14.36;70.58;98748.13;5116284;28;20036;-94
2021/11/05 10:43:14;;;;;;;15.15;8.95;;;;;;;14.63;70.85;98767.47;5122461;28;20048;-95
2021/11/05 10:45:41;;;;;;;19.35;7.53;;;;;;;14.61;69.86;98741.72;5120763;28;20079;-93
2021/11/05 10:48:09;;;;;;;10.90;4.80;;;;;;;14.83;66.02;98734.47;5115209;28;20441;-94
2021/11/05 10:50:47;;;;;;;12.20;3.60;;;;;;;14.82;64.77;98734.56;5114464;28;20044;-96
2021/11/05 10:53:15;;;;;;;8.43;3.35;;;;;;;14.80;62.92;98729.25;5119089;28;20075;-93
2021/11/05 10:55:46;;;;;;;10.13;3.25;;;;;;;14.95;61.76;98741.09;5101641;28;20047;-94
2021/11/05 10:58:18;;;;;;;8.40;3.15;;;;;;;14.83;59.60;98730.94;5118212;28;20055;-93
2021/11/05 11:00:46;;;;;;;7.43;2.58;;;;;;;14.81;59.09;98733.66;5119581;28;20051;-96
2021/11/05 11:03:14;;;;;;;8.75;3.95;;;;;;;14.92;60.43;98720.69;5121389;28;20048;-96
2021/11/05 11:05:43;;;;;;;7.85;2.47;;;;;;;14.98;58.34;98717.72;5118991;28;20134;-95
2021/11/05 11:08:18;;;;;;;7.53;2.40;;;;;;;15.16;57.97;98712.47;5120267;28;20059;-96
2021/11/05 11:10:49;;;;;;;4.72;1.90;;;;;;;15.41;56.63;98750.53;5117946;28;20040;-94
2021/11/05 11:13:31;;;;;;;7.97;2.60;;;;;;;15.32;55.91;98715.28;5117565;28;20048;-94
2021/11/05 11:15:58;;;;;;;9.02;2.08;;;;;;;15.44;51.91;98720.06;5117232;28;20093;-94
2021/11/05 11:18:25;;;;;;;5.15;2.05;;;;;;;15.42;54.34;98721.94;5112728;28;20050;-94
2021/11/05 11:20:51;;;;;;;3.95;1.80;;;;;;;15.60;53.13;98717.50;5117303;28;20126;-94
2021/11/05 11:23:17;;;;;;;6.18;1.98;;;;;;;15.66;53.54;98719.91;5117160;28;20044;-94
2021/11/05 11:25:44;;;;;;;4.68;1.67;;;;;;;15.91;52.09;98716.03;5113543;28;20076;-94
2021/11/05 11:28:11;;;;;;;7.05;1.92;;;;;;;15.95;52.44;98739.94;5113658;28;20040;-93
2021/11/05 11:30:39;;;;;;;5.70;2.00;;;;;;;15.87;52.51;98726.03;5112590;28;20043;-95